Time;durP1;ratioP1;P1;durP2;ratioP2;P2;SDS_P1;SDS_P2;PMS_P1;PMS_P2;Temp;Humidity;BMP_temperature;BMP_pressure;BME280_temperature;BME280_humidity;BME280_pressure;Samples;Min_cycle;Max_cycle;Signal;HPM_P1;HPM_P2
2022/02/15 00:00:32;;;;;;;0.60;0.60;;;;;;;6.29;100.00;98145.69;4972962;28;20502;-68
2022/02/15 00:02:57;;;;;;;0.75;0.75;;;;;;;6.35;99.97;98148.19;4966094;28;20495;-67
2022/02/15 00:05:23;;;;;;;1.33;1.23;;;;;;;6.31;99.74;98143.09;4965067;28;20030;-68
2022/02/15 00:07:48;;;;;;;1.67;1.00;;;;;;;6.31;98.64;98153.38;4973050;28;20034;-69
2022/02/15 00:10:14;;;;;;;0.88;0.88;;;;;;;6.32;98.43;98144.78;4972843;28;20033;-69
2022/02/15 00:12:40;;;;;;;0.68;0.50;;;;;;;6.42;97.55;98136.94;4973056;28;20490;-69
2022/02/15 00:15:10;;;;;;;2.33;0.85;;;;;;;6.41;97.08;98140.41;4973053;28;20037;-69
2022/02/15 00:17:36;;;;;;;0.85;0.75;;;;;;;6.25;97.35;98149.16;4973062;28;20027;-69
2022/02/15 00:20:04;;;;;;;3.03;1.13;;;;;;;6.20;97.49;98140.66;4972806;28;20034;-69
2022/02/15 00:22:30;;;;;;;1.95;1.13;;;;;;;6.19;98.39;98149.25;4973006;28;20026;-69
2022/02/15 00:24:56;;;;;;;0.90;0.90;;;;;;;6.19;98.11;98144.09;4972999;28;20037;-69
2022/02/15 00:27:22;;;;;;;1.27;0.68;;;;;;;6.22;97.85;98149.19;4972792;28;20030;-69
2022/02/15 00:29:47;;;;;;;0.80;0.80;;;;;;;6.24;97.66;98152.63;4972717;28;20023;-70
2022/02/15 00:32:12;;;;;;;1.45;0.82;;;;;;;6.25;97.64;98154.31;4968347;28;20477;-69
2022/02/15 00:34:38;;;;;;;0.60;0.60;;;;;;;6.26;97.32;98153.44;4962323;28;20035;-69
2022/02/15 00:37:03;;;;;;;1.00;0.95;;;;;;;6.26;97.28;98150.88;4972775;28;20341;-69
2022/02/15 00:39:29;;;;;;;0.73;0.73;;;;;;;6.28;96.88;98143.97;4972842;28;20099;-69
2022/02/15 00:41:54;;;;;;;0.75;0.75;;;;;;;6.25;97.19;98145.75;4972856;28;20034;-69
2022/02/15 00:44:20;;;;;;;0.98;0.95;;;;;;;6.31;96.77;98148.25;4972944;28;20040;-69
2022/02/15 00:46:46;;;;;;;0.60;0.60;;;;;;;6.31;96.53;98138.81;4972691;28;20487;-69
2022/02/15 00:49:11;;;;;;;1.08;0.82;;;;;;;6.31;96.25;98138.81;4972655;28;20110;-69
2022/02/15 00:51:37;;;;;;;1.75;1.35;;;;;;;6.33;94.63;98136.19;4972714;28;20031;-69
2022/02/15 00:54:03;;;;;;;1.88;1.52;;;;;;;6.37;95.32;98133.56;4972831;28;20034;-69
2022/02/15 00:56:28;;;;;;;0.88;0.88;;;;;;;6.36;95.41;98133.59;4972564;28;20473;-69
2022/02/15 00:58:53;;;;;;;1.80;1.60;;;;;;;6.35;95.49;98140.47;4972593;28;20027;-69
2022/02/15 05:17:26;;;;;;;0.98;0.90;;;;;;;5.06;99.19;98276.81;5039684;23;20054;-68
2022/02/15 05:19:51;;;;;;;1.85;0.90;;;;;;;4.95;99.99;98285.41;4976200;28;20073;-68
2022/02/15 05:22:17;;;;;;;2.00;1.17;;;;;;;4.98;100.00;98280.25;4976076;28;20062;-68
2022/02/15 05:24:42;;;;;;;0.75;0.75;;;;;;;4.99;100.00;98287.13;4976058;28;20043;-68
2022/02/15 05:27:08;;;;;;;0.73;0.73;;;;;;;5.03;100.00;98281.97;4959614;28;20484;-69
2022/02/15 05:29:37;;;;;;;0.70;0.70;;;;;;;5.08;100.00;98287.94;4956710;29;20496;-68
2022/02/15 05:32:03;;;;;;;0.75;0.75;;;;;;;5.07;100.00;98287.94;4956541;29;20488;-68
2022/02/15 05:34:28;;;;;;;0.88;0.85;;;;;;;5.06;100.00;98281.09;4964475;28;20043;-68
2022/02/15 05:36:54;;;;;;;0.90;0.90;;;;;;;5.11;99.43;98287.91;4975175;28;20547;-68
2022/02/15 05:39:20;;;;;;;1.08;1.00;;;;;;;5.25;98.18;98280.16;4945267;28;20054;-67
2022/02/15 05:41:45;;;;;;;0.77;0.77;;;;;;;5.10;98.57;98290.50;4975646;28;20022;-68
2022/02/15 05:44:11;;;;;;;0.63;0.63;;;;;;;5.07;98.71;98286.22;4975686;28;20029;-69
2022/02/15 05:46:36;;;;;;;0.60;0.60;;;;;;;5.24;97.39;98304.13;4975537;28;20439;-68
2022/02/15 05:49:02;;;;;;;0.60;0.60;;;;;;;5.09;97.87;98304.19;4975605;28;20030;-67
2022/02/15 05:51:28;;;;;;;2.25;1.23;;;;;;;5.02;98.13;98302.50;4975756;28;20042;-67
2022/02/15 05:53:53;;;;;;;0.77;0.77;;;;;;;5.04;99.09;98300.78;4975445;28;20388;-67
2022/02/15 05:56:19;;;;;;;1.83;1.30;;;;;;;5.03;98.97;98305.06;4975360;28;20035;-67
2022/02/15 05:58:44;;;;;;;1.30;1.23;;;;;;;4.91;99.39;98305.09;4975293;28;20033;-67
2022/02/15 06:01:10;;;;;;;0.82;0.82;;;;;;;4.92;99.64;98308.53;4975621;28;20102;-67
2022/02/15 06:06:20;;;;;;;1.60;1.50;;;;;;;4.93;100.00;98302.53;4970517;28;20502;-67
2022/02/15 06:08:45;;;;;;;0.93;0.93;;;;;;;4.85;100.00;98316.25;4975164;28;20031;-67
2022/02/15 06:11:11;;;;;;;3.85;1.15;;;;;;;4.98;100.00;98306.81;4975239;28;20081;-67
2022/02/15 06:13:36;;;;;;;0.70;0.70;;;;;;;4.94;100.00;98314.53;4975121;28;20449;-67
2022/02/15 06:16:01;;;;;;;2.92;1.00;;;;;;;5.05;98.87;98313.63;4974752;28;20447;-67
2022/02/15 06:18:26;;;;;;;0.77;0.77;;;;;;;4.99;98.72;98320.50;4974975;28;20065;-67
2022/02/15 06:20:52;;;;;;;2.38;2.22;;;;;;;4.98;99.09;98326.47;4975047;28;20026;-67
2022/02/15 06:23:17;;;;;;;2.55;1.25;;;;;;;5.03;98.85;98325.63;4974982;28;20440;-67
2022/02/15 06:25:42;;;;;;;0.60;0.60;;;;;;;5.11;98.21;98334.13;4974530;28;20038;-67
2022/02/15 06:28:08;;;;;;;2.00;1.90;;;;;;;5.11;98.03;98333.28;4974812;28;20045;-67
2022/02/15 06:30:34;;;;;;;0.70;0.70;;;;;;;5.06;97.99;98337.56;4974961;28;20034;-67
2022/02/15 06:32:59;;;;;;;0.80;0.80;;;;;;;5.15;97.90;98350.38;4967491;28;20174;-67
2022/02/15 06:35:25;;;;;;;0.70;0.70;;;;;;;5.06;98.36;98347.84;4966477;28;20110;-67
2022/02/15 06:37:50;;;;;;;1.25;1.25;;;;;;;5.03;99.01;98355.53;4974663;28;20109;-67
2022/02/15 06:40:18;;;;;;;1.73;1.63;;;;;;;5.07;98.79;98352.13;4974512;28;20026;-68
2022/02/15 06:42:46;;;;;;;1.17;1.17;;;;;;;5.11;98.77;98354.66;4974550;28;20038;-68
2022/02/15 06:45:12;;;;;;;1.65;1.35;;;;;;;5.15;99.10;98360.66;4974622;28;20081;-68
2022/02/15 06:47:37;;;;;;;0.98;0.98;;;;;;;5.08;99.74;98358.97;4974378;28;20030;-68
2022/02/15 06:50:04;;;;;;;1.30;1.25;;;;;;;5.16;99.42;98360.63;4974391;28;20023;-68
2022/02/15 06:52:29;;;;;;;0.88;0.70;;;;;;;5.14;99.38;98369.22;4974839;28;20038;-68
2022/02/15 06:54:55;;;;;;;1.33;1.25;;;;;;;5.09;99.16;98370.97;4974229;28;20018;-68
2022/02/15 06:57:20;;;;;;;1.88;0.88;;;;;;;5.13;99.44;98378.66;4973958;28;20046;-68
2022/02/15 06:59:46;;;;;;;0.98;0.98;;;;;;;5.35;99.21;98381.97;4974106;28;20410;-68
2022/02/15 07:02:12;;;;;;;1.17;1.17;;;;;;;5.29;98.66;98384.59;4969703;28;20035;-68
2022/02/15 07:04:37;;;;;;;2.08;1.70;;;;;;;5.25;98.49;98388.00;4963630;28;20109;-68
2022/02/15 07:07:03;;;;;;;3.03;1.75;;;;;;;5.45;97.82;98387.09;4973883;28;20027;-68
2022/02/15 07:09:28;;;;;;;1.13;1.13;;;;;;;5.56;94.63;98393.91;4974230;28;20527;-68
2022/02/15 07:11:54;;;;;;;0.70;0.70;;;;;;;5.90;90.27;98397.16;4973966;28;20050;-68
2022/02/15 07:14:19;;;;;;;2.17;1.10;;;;;;;5.84;93.19;98399.75;4974356;28;20502;-68
2022/02/15 07:16:45;;;;;;;2.30;1.38;;;;;;;5.64;94.74;98410.13;4973818;28;20034;-68
2022/02/15 07:19:11;;;;;;;1.13;1.13;;;;;;;5.61;95.82;98417.03;4973814;28;20029;-68
2022/02/15 07:21:37;;;;;;;0.52;0.52;;;;;;;5.75;95.79;98415.22;4973668;28;20041;-68
2022/02/15 07:24:04;;;;;;;0.70;0.70;;;;;;;5.72;94.77;98422.97;4973896;28;20114;-68
2022/02/15 07:26:30;;;;;;;2.25;1.73;;;;;;;5.80;94.80;98423.78;4973464;28;20046;-68
2022/02/15 07:28:55;;;;;;;1.30;1.25;;;;;;;5.88;93.25;98416.88;4973804;28;20022;-69
2022/02/15 07:31:21;;;;;;;0.60;0.60;;;;;;;6.11;90.20;98418.50;4973807;28;20026;-69
2022/02/15 07:33:47;;;;;;;0.85;0.85;;;;;;;6.12;90.60;98427.94;4964368;28;20038;-69
2022/02/15 07:36:12;;;;;;;1.10;1.02;;;;;;;6.04;91.41;98432.25;4950339;28;20396;-69
2022/02/15 07:38:37;;;;;;;0.70;0.70;;;;;;;6.33;88.47;98432.91;4973522;28;20030;-69
2022/02/15 07:41:03;;;;;;;0.70;0.70;;;;;;;6.22;88.26;98442.44;4973517;28;20026;-69
2022/02/15 07:43:28;;;;;;;1.00;1.00;;;;;;;6.20;87.81;98451.91;4973724;28;20026;-69
2022/02/15 07:45:54;;;;;;;2.83;1.60;;;;;;;6.24;86.92;98451.03;4973407;28;20023;-69
2022/02/15 07:48:20;;;;;;;0.50;0.50;;;;;;;6.22;87.94;98455.31;4973466;28;20455;-69
2022/02/15 07:50:45;;;;;;;0.60;0.60;;;;;;;6.38;86.65;98459.50;4973562;28;20365;-69
2022/02/15 07:53:11;;;;;;;1.10;1.00;;;;;;;6.28;86.51;98465.53;4973427;28;20334;-69
2022/02/15 07:55:36;;;;;;;1.17;1.15;;;;;;;6.30;86.98;98466.41;4973220;28;20476;-69
2022/02/15 07:58:02;;;;;;;2.92;1.27;;;;;;;6.25;87.26;98465.59;4973158;28;20026;-67
2022/02/15 08:00:28;;;;;;;0.50;0.50;;;;;;;6.29;86.96;98475.00;4973358;28;20475;-68
2022/02/15 08:02:53;;;;;;;0.52;0.52;;;;;;;6.21;88.00;98471.59;4955828;28;20054;-68
2022/02/15 08:05:20;;;;;;;0.50;0.50;;;;;;;6.31;88.32;98473.25;4965558;28;20023;-67
2022/02/15 08:07:47;;;;;;;0.60;0.60;;;;;;;6.43;87.17;98478.34;4973133;28;20033;-69
2022/02/15 08:10:13;;;;;;;0.50;0.50;;;;;;;6.40;87.45;98478.34;4973108;28;20034;-69
2022/02/15 08:12:41;;;;;;;0.60;0.60;;;;;;;6.45;88.30;98468.03;4973473;28;20026;-69
2022/02/15 08:15:06;;;;;;;0.60;0.60;;;;;;;6.53;86.18;98474.00;4973129;28;20030;-68
2022/02/15 08:17:32;;;;;;;0.80;0.80;;;;;;;6.40;86.76;98477.50;4972787;28;20034;-67
2022/02/15 08:19:57;;;;;;;0.73;0.73;;;;;;;6.43;87.94;98483.50;4970704;28;20125;-67
2022/02/15 08:22:24;;;;;;;1.33;1.23;;;;;;;6.39;87.72;98481.78;4973210;28;20476;-67
2022/02/15 08:24:49;;;;;;;0.85;0.85;;;;;;;6.64;86.46;98489.34;4972976;28;20034;-69
2022/02/15 08:27:15;;;;;;;0.93;0.93;;;;;;;6.65;85.38;98493.63;4972938;28;20026;-68
2022/02/15 08:29:40;;;;;;;1.10;1.10;;;;;;;6.73;86.02;98493.59;4973070;28;20023;-67
2022/02/15 08:32:06;;;;;;;5.57;1.42;;;;;;;6.77;85.91;98490.09;4971128;28;20023;-68
2022/02/15 08:34:33;;;;;;;8.50;1.83;;;;;;;6.92;86.08;98487.44;4965467;28;20023;-69
2022/02/15 08:36:58;;;;;;;4.13;1.75;;;;;;;6.97;84.63;98489.97;4976733;28;20054;-68
2022/02/15 08:39:25;;;;;;;2.45;1.85;;;;;;;7.19;84.90;98496.63;4976698;28;20499;-67
2022/02/15 08:41:51;;;;;;;0.77;0.77;;;;;;;7.36;83.29;98492.19;4976978;28;20492;-68
2022/02/15 08:44:16;;;;;;;1.48;1.25;;;;;;;7.28;82.59;98499.13;4976911;28;20117;-69
2022/02/15 08:46:42;;;;;;;1.45;1.45;;;;;;;7.06;83.46;98495.03;4959326;28;20066;-69
2022/02/15 08:49:08;;;;;;;2.55;1.75;;;;;;;7.08;82.98;98488.16;4976774;28;20107;-69
2022/02/15 08:51:37;;;;;;;0.95;0.95;;;;;;;7.15;83.11;98494.94;4976606;28;20027;-69
2022/02/15 08:54:03;;;;;;;0.60;0.60;;;;;;;7.20;83.34;98493.19;4976545;28;20030;-67
2022/02/15 08:56:29;;;;;;;2.70;0.90;;;;;;;7.21;82.59;98497.50;4976324;28;20109;-69
2022/02/15 08:58:54;;;;;;;3.97;2.97;;;;;;;7.25;82.08;98506.88;4976498;28;20212;-68
2022/02/15 09:01:20;;;;;;;1.08;0.98;;;;;;;7.22;81.69;98517.22;4976508;28;20491;-69
2022/02/15 09:03:46;;;;;;;0.70;0.70;;;;;;;7.31;81.92;98519.72;4967233;28;20030;-68
2022/02/15 09:06:11;;;;;;;0.93;0.93;;;;;;;7.22;81.50;98518.06;4970160;28;20031;-68
2022/02/15 09:08:37;;;;;;;0.82;0.82;;;;;;;7.24;81.75;98525.78;4976282;28;20031;-68
2022/02/15 09:11:03;;;;;;;1.55;0.57;;;;;;;7.27;81.57;98525.78;4976212;28;20123;-68
2022/02/15 09:13:28;;;;;;;0.90;0.90;;;;;;;7.25;81.16;98530.06;4976316;28;20038;-67
2022/02/15 09:15:54;;;;;;;0.70;0.70;;;;;;;7.15;82.61;98531.00;4975801;28;20035;-67
2022/02/15 09:18:19;;;;;;;0.50;0.50;;;;;;;7.23;81.58;98529.22;4976264;28;20047;-68
2022/02/15 09:20:44;;;;;;;1.13;0.95;;;;;;;7.15;82.04;98528.44;4976086;28;20054;-69
2022/02/15 09:23:10;;;;;;;1.33;1.23;;;;;;;7.10;82.84;98527.63;4975949;28;20058;-69
2022/02/15 09:25:36;;;;;;;0.50;0.50;;;;;;;7.03;82.17;98531.13;4975928;28;20035;-69
2022/02/15 09:28:02;;;;;;;0.47;0.47;;;;;;;6.98;80.86;98530.31;4975935;28;20027;-69
2022/02/15 09:30:27;;;;;;;0.70;0.70;;;;;;;6.97;80.31;98529.47;4976014;28;20015;-69
2022/02/15 09:32:53;;;;;;;0.52;0.52;;;;;;;6.97;80.24;98531.19;4968646;28;20026;-69
2022/02/15 09:35:19;;;;;;;0.40;0.40;;;;;;;6.82;81.07;98533.00;4950301;28;20037;-69
2022/02/15 09:37:44;;;;;;;1.17;0.93;;;;;;;6.82;80.82;98535.56;4975403;28;20058;-68
2022/02/15 09:40:11;;;;;;;0.60;0.60;;;;;;;6.87;81.28;98533.81;4975909;28;20512;-69
2022/02/15 09:42:37;;;;;;;0.50;0.50;;;;;;;6.85;81.07;98545.84;4975332;28;20038;-69
2022/02/15 09:45:07;;;;;;;0.60;0.60;;;;;;;6.78;81.17;98549.34;4975404;28;20501;-69
2022/02/15 09:47:34;;;;;;;;;;;;;;;6.95;80.69;98555.19;4975819;28;20046;-69
2022/02/15 09:50:06;;;;;;;0.50;0.50;;;;;;;7.13;79.89;98553.38;4958304;28;20382;-69
2022/02/15 09:52:32;;;;;;;0.57;0.57;;;;;;;7.32;78.96;98548.91;4975523;28;20035;-69
2022/02/15 09:54:58;;;;;;;0.55;0.55;;;;;;;7.28;78.48;98555.81;4975744;28;20027;-69
2022/02/15 09:57:24;;;;;;;0.43;0.43;;;;;;;7.55;77.80;98556.44;4975129;28;20361;-69
2022/02/15 09:59:51;;;;;;;7.05;1.08;;;;;;;7.30;76.39;98559.25;4975415;28;20031;-68
2022/02/15 10:02:25;;;;;;;0.50;0.50;;;;;;;7.42;76.86;98564.28;4954746;29;20031;-68
2022/02/15 10:04:54;;;;;;;0.50;0.50;;;;;;;7.48;75.65;98561.63;4966290;28;20027;-68
2022/02/15 10:07:19;;;;;;;0.63;0.63;;;;;;;7.56;75.56;98563.31;4975117;28;20037;-69
2022/02/15 10:09:52;;;;;;;0.90;0.90;;;;;;;7.47;75.80;98559.09;4975225;28;20023;-68
2022/02/15 10:12:19;;;;;;;0.50;0.50;;;;;;;7.43;75.81;98573.72;4975210;28;20023;-68
2022/02/15 10:14:46;;;;;;;0.98;0.98;;;;;;;7.39;75.29;98566.88;4975136;28;20023;-68
2022/02/15 10:17:13;;;;;;;0.68;0.68;;;;;;;7.43;74.81;98562.56;4974749;28;20117;-68
2022/02/15 10:19:40;;;;;;;3.25;1.20;;;;;;;7.75;74.23;98564.84;4974970;28;20023;-68
2022/02/15 10:22:06;;;;;;;1.30;1.20;;;;;;;7.84;74.01;98575.06;4975059;28;20089;-68
2022/02/15 10:24:35;;;;;;;1.35;1.25;;;;;;;7.63;72.86;98581.28;4975149;28;20019;-68
2022/02/15 10:27:08;;;;;;;2.72;2.53;;;;;;;7.55;74.42;98584.81;4974668;28;20472;-68
2022/02/15 10:29:35;;;;;;;2.45;1.05;;;;;;;7.75;73.72;98585.47;4974799;28;20538;-68
2022/02/15 10:32:07;;;;;;;0.70;0.70;;;;;;;7.59;73.14;98587.34;4971634;28;20050;-68
2022/02/15 10:34:33;;;;;;;0.90;0.90;;;;;;;7.58;73.46;98592.50;4963750;28;20413;-68
2022/02/15 10:37:04;;;;;;;0.80;0.80;;;;;;;7.61;73.08;98593.34;4974588;28;20515;-68
2022/02/15 10:39:47;;;;;;;1.40;1.30;;;;;;;7.65;74.47;98596.75;4974557;28;20030;-68
2022/02/15 10:42:14;;;;;;;0.50;0.50;;;;;;;7.53;71.71;98595.13;4974643;28;20094;-68
2022/02/15 10:45:00;;;;;;;1.33;0.88;;;;;;;7.43;71.50;98596.06;4974872;28;20049;-69
2022/02/15 10:47:45;;;;;;;0.75;0.75;;;;;;;7.38;71.67;98601.25;4974222;28;20027;-69
2022/02/15 10:50:15;;;;;;;1.95;1.30;;;;;;;7.32;71.89;98605.63;4957484;28;20022;-68
2022/02/15 10:52:41;;;;;;;3.03;1.33;;;;;;;7.24;71.67;98597.06;4974421;28;20030;-68
2022/02/15 10:55:08;;;;;;;0.60;0.60;;;;;;;7.31;71.77;98599.63;4974394;28;20121;-69
2022/02/15 10:57:36;;;;;;;0.55;0.55;;;;;;;7.35;70.51;98600.41;4974174;28;20031;-68
2022/02/15 11:00:05;;;;;;;0.57;0.57;;;;;;;7.34;70.09;98601.28;4974333;28;20395;-69
2022/02/15 11:02:31;;;;;;;1.38;0.80;;;;;;;7.37;69.98;98599.56;4967540;28;20034;-68
2022/02/15 11:05:01;;;;;;;1.33;1.15;;;;;;;7.44;70.89;98611.50;4966104;28;20454;-70
2022/02/15 11:07:28;;;;;;;2.35;2.15;;;;;;;7.48;70.28;98608.03;4974114;28;20035;-69
2022/02/15 11:10:19;;;;;;;2.47;1.58;;;;;;;7.69;69.89;98611.31;4974378;28;20089;-69
2022/02/15 11:12:47;;;;;;;2.17;1.63;;;;;;;7.69;68.76;98606.16;4974153;28;20506;-70
2022/02/15 11:15:19;;;;;;;0.95;0.95;;;;;;;7.59;67.54;98600.25;4973913;28;20026;-68
2022/02/15 11:17:46;;;;;;;0.68;0.68;;;;;;;7.58;67.45;98602.81;4973732;28;20030;-68
2022/02/15 11:20:16;;;;;;;0.77;0.77;;;;;;;7.54;68.26;98616.59;4973822;28;20472;-70
2022/02/15 11:22:55;;;;;;;3.40;2.67;;;;;;;7.45;67.37;98613.25;4974163;28;20026;-69
2022/02/15 11:25:35;;;;;;;1.25;1.17;;;;;;;7.45;66.54;98618.41;4973853;28;20373;-69
2022/02/15 11:28:08;;;;;;;2.63;1.83;;;;;;;7.51;67.28;98627.81;4973628;28;20018;-68
2022/02/15 11:30:43;;;;;;;1.08;0.90;;;;;;;7.54;66.00;98622.59;4988261;23;20102;-74
2022/02/15 11:33:08;;;;;;;0.98;0.98;;;;;;;7.40;67.03;98625.31;4978541;28;20029;-74
2022/02/15 11:35:34;;;;;;;1.45;1.35;;;;;;;7.55;65.74;98628.63;4984787;28;20026;-74
2022/02/15 11:38:13;;;;;;;1.98;1.80;;;;;;;7.41;65.14;98621.88;4975219;28;20396;-74
2022/02/15 11:40:39;;;;;;;1.30;1.30;;;;;;;7.44;65.21;98632.13;4984397;28;20034;-74
2022/02/15 11:43:05;;;;;;;0.60;0.60;;;;;;;7.48;65.90;98627.81;4973473;28;20027;-74
2022/02/15 11:45:32;;;;;;;0.73;0.73;;;;;;;7.41;66.71;98636.47;4973553;28;20105;-74
2022/02/15 11:48:10;;;;;;;1.70;1.60;;;;;;;7.43;68.41;98633.00;4973628;28;20081;-74
2022/02/15 11:50:47;;;;;;;3.63;1.52;;;;;;;7.42;69.76;98639.03;4973847;28;20564;-73
2022/02/15 11:53:16;;;;;;;0.95;0.95;;;;;;;7.33;71.28;98631.38;4973292;28;20053;-72
2022/02/15 11:55:42;;;;;;;1.53;1.43;;;;;;;7.36;70.59;98633.94;4973207;28;20034;-72
2022/02/15 11:58:08;;;;;;;1.15;1.02;;;;;;;7.32;70.73;98634.81;4973291;28;20027;-72
2022/02/15 12:00:36;;;;;;;1.27;1.05;;;;;;;7.34;71.29;98633.06;4973123;28;20044;-72
2022/02/15 12:03:02;;;;;;;0.90;0.90;;;;;;;7.40;71.20;98643.34;4936455;28;20094;-72
2022/02/15 12:05:36;;;;;;;0.65;0.65;;;;;;;7.37;71.41;98635.63;4962461;28;20029;-74
2022/02/15 12:08:01;;;;;;;1.08;1.08;;;;;;;7.34;72.25;98638.22;4972858;28;20027;-72
2022/02/15 12:10:35;;;;;;;0.98;0.98;;;;;;;7.38;72.02;98636.50;4973077;28;20042;-72
2022/02/15 12:13:00;;;;;;;1.27;1.13;;;;;;;7.47;70.38;98642.44;4973161;28;20030;-72
2022/02/15 12:15:29;;;;;;;0.63;0.63;;;;;;;7.60;70.46;98634.59;4973208;28;20399;-72
2022/02/15 12:17:55;;;;;;;0.50;0.50;;;;;;;7.55;69.27;98638.94;4973016;28;20023;-72
2022/02/15 12:20:21;;;;;;;0.50;0.50;;;;;;;7.57;68.41;98643.22;4955467;28;20708;-72
2022/02/15 12:22:49;;;;;;;0.70;0.70;;;;;;;7.57;67.75;98638.06;4973120;28;20018;-71
2022/02/15 12:25:14;;;;;;;0.57;0.57;;;;;;;7.70;68.54;98633.66;4971703;28;20396;-72
2022/02/15 12:27:45;;;;;;;0.60;0.60;;;;;;;7.62;68.38;98636.28;4972917;28;20022;-72
2022/02/15 12:30:12;;;;;;;0.47;0.47;;;;;;;7.72;66.31;98644.81;4972803;28;20077;-73
2022/02/15 12:32:40;;;;;;;0.65;0.65;;;;;;;7.63;65.71;98634.56;4965746;28;20081;-72
2022/02/15 12:35:08;;;;;;;0.70;0.70;;;;;;;7.73;65.34;98634.47;4964893;28;20026;-72
2022/02/15 12:37:33;;;;;;;0.70;0.70;;;;;;;7.85;65.47;98637.81;4972842;28;20038;-72
2022/02/15 12:40:01;;;;;;;1.38;0.95;;;;;;;8.05;65.03;98630.72;4972723;28;20018;-72
2022/02/15 12:42:29;;;;;;;0.57;0.57;;;;;;;8.54;64.36;98631.94;4972982;28;20034;-73
2022/02/15 12:44:57;;;;;;;0.50;0.50;;;;;;;8.52;63.02;98631.97;4972888;28;20121;-74
2022/02/15 12:47:24;;;;;;;0.52;0.52;;;;;;;8.53;61.27;98622.50;4955641;28;20023;-72
2022/02/15 12:49:54;;;;;;;0.80;0.80;;;;;;;8.70;60.84;98617.94;4972800;28;20054;-72
2022/02/15 12:52:23;;;;;;;0.70;0.70;;;;;;;8.45;61.80;98626.00;4972929;28;20110;-72
2022/02/15 12:54:58;;;;;;;0.50;0.50;;;;;;;8.45;62.14;98626.00;4972693;28;20035;-74
2022/02/15 12:57:24;;;;;;;0.50;0.50;;;;;;;8.57;62.10;98624.16;4972693;28;20046;-72
2022/02/15 13:00:00;;;;;;;0.57;0.57;;;;;;;8.37;61.88;98627.84;4972478;28;20542;-74
2022/02/15 13:02:29;;;;;;;0.70;0.70;;;;;;;8.23;62.84;98629.69;4966362;28;20058;-72
2022/02/15 13:04:59;;;;;;;0.70;0.70;;;;;;;7.91;63.14;98636.03;4964576;28;20023;-72
2022/02/15 13:07:26;;;;;;;3.50;1.45;;;;;;;7.92;63.27;98630.00;4972831;28;20027;-72
2022/02/15 13:09:59;;;;;;;1.30;0.98;;;;;;;7.75;62.61;98631.03;4955422;28;20027;-72
2022/02/15 13:12:26;;;;;;;0.93;0.93;;;;;;;7.85;63.08;98628.34;4972489;28;20058;-72
2022/02/15 13:14:56;;;;;;;0.80;0.80;;;;;;;7.91;64.26;98632.59;4972698;28;20026;-72
2022/02/15 13:17:37;;;;;;;0.60;0.60;;;;;;;7.95;63.63;98629.97;4972445;28;20027;-72
2022/02/15 13:20:17;;;;;;;0.80;0.80;;;;;;;8.04;63.65;98634.19;4975647;28;20054;-72
2022/02/15 13:22:44;;;;;;;0.43;0.43;;;;;;;8.12;62.41;98631.50;4975991;28;20054;-72
2022/02/15 13:25:09;;;;;;;1.33;0.88;;;;;;;8.39;62.87;98635.56;4976100;28;20030;-72
2022/02/15 13:27:36;;;;;;;0.45;0.45;;;;;;;8.74;62.10;98632.53;4975818;28;20483;-72
2022/02/15 13:30:16;;;;;;;0.73;0.73;;;;;;;9.02;62.04;98636.47;4975901;28;20085;-72
2022/02/15 13:32:42;;;;;;;0.73;0.73;;;;;;;8.90;62.11;98630.63;4968601;28;20027;-72
2022/02/15 13:35:08;;;;;;;1.27;1.17;;;;;;;8.89;62.01;98634.91;4967761;28;20019;-72
2022/02/15 13:37:38;;;;;;;0.85;0.80;;;;;;;8.62;62.10;98637.88;4974344;28;20081;-73
2022/02/15 13:40:06;;;;;;;0.70;0.70;;;;;;;8.35;63.87;98650.19;4975698;28;20365;-72
2022/02/15 13:42:32;;;;;;;0.60;0.60;;;;;;;8.06;64.50;98641.91;4975612;28;20042;-72
2022/02/15 13:44:58;;;;;;;0.40;0.40;;;;;;;7.82;64.45;98643.84;4975714;28;20026;-72
2022/02/15 13:47:25;;;;;;;0.50;0.50;;;;;;;7.65;65.53;98661.22;4975429;28;20038;-72
2022/02/15 13:49:51;;;;;;;0.50;0.50;;;;;;;7.23;69.54;98658.06;4975402;28;20399;-72
2022/02/15 13:52:17;;;;;;;0.80;0.80;;;;;;;6.80;71.21;98668.63;4975561;28;20043;-72
2022/02/15 13:54:44;;;;;;;0.50;0.50;;;;;;;6.70;72.87;98672.94;4975673;28;20093;-72
2022/02/15 13:57:10;;;;;;;1.35;1.25;;;;;;;6.59;72.29;98668.72;4975260;28;20105;-72
2022/02/15 13:59:36;;;;;;;0.40;0.40;;;;;;;6.44;74.32;98675.63;4975380;28;20062;-72
2022/02/15 14:02:02;;;;;;;0.50;0.50;;;;;;;6.38;74.61;98675.66;4971971;28;20117;-72
2022/02/15 14:04:28;;;;;;;0.50;0.50;;;;;;;6.27;74.92;98679.94;4963850;28;20055;-72
2022/02/15 14:06:54;;;;;;;0.50;0.50;;;;;;;6.25;74.84;98679.13;4974952;28;20031;-72
2022/02/15 14:09:20;;;;;;;0.50;0.50;;;;;;;6.25;74.59;98673.97;4975179;28;20027;-72
2022/02/15 14:11:45;;;;;;;0.60;0.60;;;;;;;6.36;73.85;98685.06;4975224;28;20097;-72
2022/02/15 14:14:11;;;;;;;0.80;0.80;;;;;;;6.39;73.88;98681.66;4975181;28;20456;-72
2022/02/15 14:16:36;;;;;;;0.85;0.73;;;;;;;6.37;73.11;98684.22;4975000;28;20023;-72
2022/02/15 14:19:02;;;;;;;0.85;0.75;;;;;;;6.43;73.01;98691.94;4974831;28;20033;-72
2022/02/15 14:21:27;;;;;;;0.65;0.65;;;;;;;6.44;71.34;98685.06;4974996;28;20485;-72
2022/02/15 14:23:52;;;;;;;0.50;0.50;;;;;;;6.44;71.33;98685.91;4974893;28;20034;-72
2022/02/15 14:26:18;;;;;;;0.63;0.63;;;;;;;6.54;72.02;98685.91;4975139;28;20026;-72
2022/02/15 14:28:44;;;;;;;0.63;0.63;;;;;;;6.57;71.04;98691.00;4974704;28;20031;-72
2022/02/15 14:31:09;;;;;;;0.40;0.40;;;;;;;6.55;71.53;98682.44;4974551;28;20373;-72
2022/02/15 14:33:37;;;;;;;1.35;1.35;;;;;;;6.77;71.20;98684.09;4966743;28;20027;-72
2022/02/15 14:36:03;;;;;;;0.60;0.60;;;;;;;6.98;70.37;98685.69;4967341;28;20023;-72
2022/02/15 14:38:29;;;;;;;0.60;0.60;;;;;;;7.07;69.48;98682.22;4974638;28;20027;-73
2022/02/15 14:40:55;;;;;;;0.85;0.85;;;;;;;7.73;69.46;98674.88;4974410;28;20114;-73
2022/02/15 14:43:21;;;;;;;0.75;0.75;;;;;;;7.84;67.32;98683.41;4974731;28;20031;-73
2022/02/15 14:45:47;;;;;;;0.43;0.43;;;;;;;7.88;67.90;98684.19;4974340;28;20369;-72
2022/02/15 14:48:12;;;;;;;0.98;0.98;;;;;;;7.51;67.98;98688.81;4974454;28;20085;-72
2022/02/15 14:50:38;;;;;;;0.50;0.50;;;;;;;7.19;69.56;98692.44;4974280;28;20019;-72
2022/02/15 14:53:03;;;;;;;0.70;0.70;;;;;;;7.20;70.91;98701.88;4974389;28;20034;-72
2022/02/15 14:55:30;;;;;;;0.50;0.50;;;;;;;6.96;72.15;98705.44;4974373;28;20022;-72
2022/02/15 14:57:56;;;;;;;0.57;0.57;;;;;;;6.74;72.29;98704.69;4974285;28;20072;-72
2022/02/15 15:00:23;;;;;;;0.50;0.50;;;;;;;6.79;71.76;98700.38;4974162;28;20102;-72
2022/02/15 15:02:48;;;;;;;0.57;0.57;;;;;;;6.78;72.32;98706.41;4966932;28;20038;-72
2022/02/15 15:05:14;;;;;;;0.52;0.52;;;;;;;6.72;71.07;98701.28;4966000;28;20407;-72
2022/02/15 15:07:41;;;;;;;0.77;0.77;;;;;;;6.70;71.41;98705.56;4974004;28;20077;-72
2022/02/15 15:10:08;;;;;;;0.50;0.50;;;;;;;6.83;71.12;98699.50;4974155;28;20050;-72
2022/02/15 15:12:34;;;;;;;1.00;0.90;;;;;;;7.02;70.66;98691.69;4974014;28;20030;-72
2022/02/15 15:15:00;;;;;;;0.50;0.50;;;;;;;7.00;70.92;98690.84;4974035;28;20035;-72
2022/02/15 15:17:27;;;;;;;0.80;0.80;;;;;;;6.90;70.90;98682.31;4973865;28;20426;-72
2022/02/15 15:19:54;;;;;;;0.50;0.50;;;;;;;6.83;70.53;98694.34;4973819;28;20030;-72
2022/02/15 15:22:21;;;;;;;0.93;0.90;;;;;;;6.80;70.93;98689.22;4973774;28;20023;-72
2022/02/15 15:24:47;;;;;;;0.50;0.50;;;;;;;6.87;70.60;98680.59;4973954;28;20089;-72
2022/02/15 15:27:16;;;;;;;2.08;1.92;;;;;;;6.87;69.65;98678.03;4973617;28;20440;-72
2022/02/15 15:29:43;;;;;;;0.90;0.90;;;;;;;7.07;69.75;98670.19;4973606;28;20102;-72
2022/02/15 15:32:08;;;;;;;0.60;0.60;;;;;;;7.05;68.86;98673.63;4969354;28;20031;-72
2022/02/15 15:34:35;;;;;;;2.45;0.70;;;;;;;7.07;68.22;98677.06;4962740;28;20110;-72
2022/02/15 15:37:00;;;;;;;0.90;0.90;;;;;;;7.13;67.03;98682.19;4973359;28;20086;-72
2022/02/15 15:39:27;;;;;;;0.88;0.88;;;;;;;7.30;66.06;98692.38;4973684;28;20030;-72
2022/02/15 15:41:52;;;;;;;0.47;0.47;;;;;;;7.18;65.77;98685.59;4972809;28;20026;-72
2022/02/15 15:44:18;;;;;;;0.43;0.43;;;;;;;7.12;65.64;98690.78;4962017;28;20033;-72
2022/02/15 15:46:43;;;;;;;0.60;0.60;;;;;;;7.06;66.11;98690.78;4955566;28;20031;-72
2022/02/15 15:49:09;;;;;;;0.65;0.65;;;;;;;7.16;65.36;98688.19;4965528;28;20536;-72
2022/02/15 15:51:35;;;;;;;6.05;2.67;;;;;;;7.16;65.50;98693.34;4956906;28;20476;-72
2022/02/15 15:54:02;;;;;;;0.50;0.50;;;;;;;7.16;65.77;98692.47;4954044;29;20049;-72
2022/02/15 15:56:31;;;;;;;2.75;0.88;;;;;;;7.19;66.21;98684.72;4953942;29;20033;-77
2022/02/15 15:58:57;;;;;;;0.80;0.80;;;;;;;7.08;66.98;98687.38;4953877;29;20027;-72